createdAt,value
2019-04-05T00:01:15.534Z,6.24
2019-04-05T00:03:42.262Z,6.29
2019-04-05T00:06:08.997Z,6.27
2019-04-05T00:08:35.703Z,6.27
2019-04-05T00:11:02.328Z,6.31
2019-04-05T00:13:29.057Z,6.29
2019-04-05T00:15:55.767Z,6.27
2019-04-05T00:18:22.503Z,6.24
2019-04-05T00:20:49.106Z,6.22
2019-04-05T00:23:15.767Z,6.19
2019-04-05T00:25:42.492Z,6.18
2019-04-05T00:28:09.232Z,6.19
2019-04-05T00:30:35.864Z,6.14
2019-04-05T00:33:02.598Z,6.11
2019-04-05T00:35:29.311Z,6.08
2019-04-05T00:37:56.057Z,6.13
2019-04-05T00:40:22.671Z,6.12
2019-04-05T00:42:49.324Z,6.06
2019-04-05T00:45:27.610Z,6.04
2019-04-05T00:47:44.575Z,6.01
2019-04-05T00:50:11.201Z,6.02
2019-04-05T00:52:37.949Z,6.01
2019-04-05T00:55:06.144Z,5.99
2019-04-05T00:57:33.296Z,5.95
2019-04-05T01:00:00.063Z,5.95
2019-04-05T01:02:26.692Z,5.95
2019-04-05T01:04:53.281Z,5.99
2019-04-05T01:07:19.897Z,5.97
2019-04-05T01:09:46.487Z,5.98
2019-04-05T01:12:13.109Z,6.01
2019-04-05T01:14:40.125Z,6.02
2019-04-05T01:17:06.723Z,6.05
2019-04-05T01:19:33.647Z,6.05
2019-04-05T01:22:00.240Z,6.04
2019-04-05T01:24:26.832Z,6.04
2019-04-05T01:26:53.455Z,6.04
2019-04-05T01:29:20.178Z,5.99
2019-04-05T01:31:46.765Z,5.95
2019-04-05T01:34:13.384Z,5.95
2019-04-05T01:36:39.980Z,5.99
2019-04-05T01:39:06.695Z,6.02
2019-04-05T01:41:33.282Z,6.01
2019-04-05T01:43:59.890Z,6.02
2019-04-05T01:46:26.486Z,6.02
2019-04-05T01:48:53.118Z,6.00
2019-04-05T01:51:19.722Z,6.00
2019-04-05T01:53:46.351Z,6.03
2019-04-05T01:56:12.983Z,6.01
2019-04-05T01:58:39.581Z,6.00
2019-04-05T02:01:06.190Z,5.96
2019-04-05T02:03:32.768Z,5.94
2019-04-05T02:05:59.382Z,5.93
2019-04-05T02:08:25.977Z,5.95
2019-04-05T02:10:52.592Z,5.93
2019-04-05T02:13:19.173Z,5.88
2019-04-05T02:15:45.787Z,5.85
2019-04-05T02:18:12.389Z,5.80
2019-04-05T02:20:38.998Z,5.78
2019-04-05T02:23:05.691Z,5.75
2019-04-05T02:25:32.294Z,5.73
2019-04-05T02:27:58.901Z,5.73
2019-04-05T02:30:25.714Z,5.70
2019-04-05T02:32:52.415Z,5.70
2019-04-05T02:35:19.107Z,5.73
2019-04-05T02:37:45.714Z,5.74
2019-04-05T02:40:14.302Z,5.75
2019-04-05T02:42:41.041Z,5.74
2019-04-05T02:45:07.729Z,5.72
2019-04-05T02:47:34.460Z,5.71
2019-04-05T02:50:01.161Z,5.70
2019-04-05T02:52:27.778Z,5.71
2019-04-05T02:54:54.362Z,5.74
2019-04-05T02:57:21.040Z,5.71
2019-04-05T02:59:47.657Z,5.69
2019-04-05T03:02:14.228Z,5.64
2019-04-05T03:04:40.856Z,5.62
2019-04-05T03:07:07.557Z,5.63
2019-04-05T03:09:34.216Z,5.61
2019-04-05T03:12:00.808Z,5.60
2019-04-05T03:14:27.524Z,5.58
2019-04-05T03:16:54.138Z,5.54
2019-04-05T03:19:21.307Z,5.53
2019-04-05T03:21:51.163Z,5.54
2019-04-05T03:24:18.555Z,5.58
2019-04-05T03:26:47.420Z,5.55
2019-04-05T03:29:14.014Z,5.53
2019-04-05T03:31:40.655Z,5.56
2019-04-05T03:34:07.348Z,5.53
2019-04-05T03:36:33.983Z,5.49
2019-04-05T03:39:00.674Z,5.46
2019-04-05T03:41:27.377Z,5.42
2019-04-05T03:43:53.972Z,5.39
2019-04-05T03:46:20.697Z,5.37
2019-04-05T03:48:47.391Z,5.36
2019-04-05T03:51:14.026Z,5.35
2019-04-05T03:53:40.725Z,5.37
2019-04-05T03:56:07.347Z,5.41
2019-04-05T03:58:34.045Z,5.42
2019-04-05T04:01:00.648Z,5.44
2019-04-05T04:03:27.277Z,5.47
2019-04-05T04:05:53.982Z,5.48
2019-04-05T04:08:23.414Z,5.45
2019-04-05T04:10:49.543Z,5.42
2019-04-05T04:13:16.261Z,5.42
2019-04-05T04:15:42.953Z,5.40
2019-04-05T04:18:09.556Z,5.40
2019-04-05T04:20:37.733Z,5.65
2019-04-05T04:23:04.417Z,5.97
2019-04-05T04:25:31.011Z,6.14
2019-04-05T04:27:57.611Z,6.22
2019-04-05T04:30:24.217Z,6.28
2019-04-05T04:32:50.839Z,6.29
2019-04-05T04:35:17.564Z,6.64
2019-04-05T04:37:44.247Z,6.92
2019-04-05T04:40:11.385Z,7.09
2019-04-05T04:42:37.986Z,7.17
2019-04-05T04:45:11.920Z,7.09
2019-04-05T04:47:33.122Z,7.20
2019-04-05T04:49:59.725Z,7.45
2019-04-05T04:52:26.891Z,7.53
2019-04-05T04:54:53.487Z,7.51
2019-04-05T04:57:20.080Z,7.54
2019-04-05T04:59:46.792Z,7.41
2019-04-05T05:02:13.395Z,7.20
2019-04-05T05:04:40.044Z,7.30
2019-04-05T05:07:06.675Z,7.48
2019-04-05T05:09:33.311Z,7.77
2019-04-05T05:11:59.906Z,8.09
2019-04-05T05:14:26.519Z,8.38
2019-04-05T05:16:53.144Z,8.82
2019-04-05T05:19:19.834Z,9.03
2019-04-05T05:21:46.425Z,9.29
2019-04-05T05:24:13.058Z,9.35
2019-04-05T05:26:39.733Z,9.34
2019-04-05T05:29:06.359Z,9.33
2019-04-05T05:31:33.035Z,8.99
2019-04-05T05:33:59.655Z,8.71
2019-04-05T05:36:26.370Z,8.73
2019-04-05T05:38:53.080Z,8.65
2019-04-05T05:41:19.692Z,8.63
2019-04-05T05:43:46.299Z,8.41
2019-04-05T05:46:12.911Z,8.02
2019-04-05T05:48:39.510Z,7.52
2019-04-05T05:51:06.220Z,7.10
2019-04-05T05:53:32.823Z,6.73
2019-04-05T05:55:59.448Z,6.55
2019-04-05T05:58:26.542Z,6.42
2019-04-05T06:00:53.300Z,6.36
2019-04-05T06:03:19.941Z,6.29
2019-04-05T06:05:46.546Z,6.26
2019-04-05T06:08:13.162Z,6.32
2019-04-05T06:10:39.773Z,6.30
2019-04-05T06:13:07.273Z,6.22
2019-04-05T06:15:37.389Z,6.17
2019-04-05T06:18:04.896Z,6.17
2019-04-05T06:20:31.492Z,6.14
2019-04-05T06:22:58.112Z,6.17
2019-04-05T06:25:24.837Z,6.24
2019-04-05T06:27:51.506Z,6.34
2019-04-05T06:30:18.146Z,6.49
2019-04-05T06:32:44.854Z,6.55
2019-04-05T06:35:11.468Z,6.57
2019-04-05T06:37:38.068Z,6.66
2019-04-05T06:40:05.045Z,6.74
2019-04-05T06:42:31.894Z,6.79
2019-04-05T06:44:58.573Z,6.81
2019-04-05T06:47:25.336Z,6.81
2019-04-05T06:49:52.030Z,6.77
2019-04-05T06:52:18.645Z,6.89
2019-04-05T06:54:45.338Z,6.91
2019-04-05T06:57:12.065Z,6.86
2019-04-05T06:59:38.692Z,6.86
2019-04-05T07:02:05.441Z,6.83
2019-04-05T07:04:32.180Z,6.83
2019-04-05T07:06:58.793Z,6.84
2019-04-05T07:09:25.420Z,6.80
2019-04-05T07:11:52.126Z,6.79
2019-04-05T07:14:18.729Z,6.74
2019-04-05T07:16:45.349Z,6.75
2019-04-05T07:19:12.005Z,6.79
2019-04-05T07:21:38.703Z,6.84
2019-04-05T07:24:05.293Z,6.90
2019-04-05T07:26:31.923Z,7.00
2019-04-05T07:28:58.635Z,7.06
2019-04-05T07:31:25.353Z,7.11
2019-04-05T07:33:51.967Z,7.25
2019-04-05T07:36:18.673Z,7.40
2019-04-05T07:38:45.287Z,7.55
2019-04-05T07:41:11.863Z,7.65
2019-04-05T07:43:38.493Z,7.68
2019-04-05T07:46:05.108Z,7.76
2019-04-05T07:48:43.879Z,7.83
2019-04-05T07:51:00.225Z,7.92
2019-04-05T07:53:26.833Z,7.99
2019-04-05T07:55:53.431Z,8.06
2019-04-05T07:58:20.068Z,8.09
2019-04-05T08:00:53.237Z,8.16
2019-04-05T08:03:20.159Z,8.30
2019-04-05T08:05:47.461Z,8.40
2019-04-05T08:08:17.524Z,8.58
2019-04-05T08:10:44.219Z,8.77
2019-04-05T08:13:10.836Z,8.90
2019-04-05T08:15:37.528Z,8.97
2019-04-05T08:18:04.159Z,8.94
2019-04-05T08:20:30.765Z,8.88
2019-04-05T08:22:57.395Z,8.87
2019-04-05T08:25:24.008Z,8.93
2019-04-05T08:27:50.602Z,9.06
2019-04-05T08:30:17.242Z,9.06
2019-04-05T08:32:43.842Z,9.17
2019-04-05T08:35:10.444Z,9.28
2019-04-05T08:37:37.060Z,9.40
2019-04-05T08:40:03.949Z,9.52
2019-04-05T08:42:30.552Z,9.61
2019-04-05T08:44:57.169Z,9.71
2019-04-05T08:47:23.770Z,9.87
2019-04-05T08:49:50.503Z,9.97
2019-04-05T08:52:17.228Z,10.08
2019-04-05T08:54:43.856Z,10.12
2019-04-05T08:57:10.478Z,10.13
2019-04-05T08:59:37.174Z,10.12
2019-04-05T09:02:03.788Z,10.10
2019-04-05T09:04:30.397Z,10.03
2019-04-05T09:06:57.048Z,9.97
2019-04-05T09:09:23.739Z,9.90
2019-04-05T09:11:50.354Z,9.86
2019-04-05T09:14:17.054Z,9.71
2019-04-05T09:16:43.677Z,9.61
2019-04-05T09:19:22.720Z,9.50
2019-04-05T09:21:40.555Z,9.46
2019-04-05T09:24:07.339Z,9.43
2019-04-05T09:26:34.048Z,9.41
2019-04-05T09:29:00.657Z,9.40
2019-04-05T09:31:27.290Z,9.44
2019-04-05T09:33:53.979Z,9.44
2019-04-05T09:36:22.183Z,9.44
2019-04-05T09:38:48.798Z,9.41
2019-04-05T09:41:15.393Z,9.43
2019-04-05T09:43:42.005Z,9.48
2019-04-05T09:46:08.615Z,9.56
2019-04-05T09:48:35.255Z,9.69
2019-04-05T09:51:01.953Z,9.90
2019-04-05T09:53:28.553Z,10.00
2019-04-05T09:55:55.266Z,10.14
2019-04-05T09:58:21.871Z,10.31
2019-04-05T10:00:48.515Z,10.35
2019-04-05T10:03:15.217Z,10.40
2019-04-05T10:05:41.828Z,10.50
2019-04-05T10:08:08.439Z,10.66
2019-04-05T10:10:35.072Z,10.81
2019-04-05T10:13:01.672Z,10.94
2019-04-05T10:15:28.385Z,11.04
2019-04-05T10:17:55.037Z,11.11
2019-04-05T10:20:21.714Z,11.24
2019-04-05T10:22:48.320Z,11.37
2019-04-05T10:25:14.869Z,11.50
2019-04-05T10:27:41.480Z,11.52
2019-04-05T10:30:08.591Z,11.57
2019-04-05T10:32:35.582Z,11.57
2019-04-05T10:35:02.312Z,11.45
2019-04-05T10:37:28.918Z,11.45
2019-04-05T10:39:55.620Z,11.32
2019-04-05T10:42:29.599Z,11.25
2019-04-05T10:44:56.206Z,11.18
2019-04-05T10:47:22.801Z,11.19
2019-04-05T10:50:01.695Z,11.33
2019-04-05T10:52:17.936Z,11.57
2019-04-05T10:54:49.088Z,11.79
2019-04-05T10:57:18.823Z,11.94
2019-04-05T10:59:45.585Z,12.02
2019-04-05T11:02:12.199Z,12.19
2019-04-05T11:04:38.915Z,12.29
2019-04-05T11:07:05.614Z,12.27
2019-04-05T11:09:32.243Z,12.17
2019-04-05T11:11:58.888Z,12.23
2019-04-05T11:14:25.579Z,12.38
2019-04-05T11:16:58.265Z,12.46
2019-04-05T11:19:20.684Z,12.63
2019-04-05T11:21:48.473Z,12.61
2019-04-05T11:24:15.816Z,12.50
2019-04-05T11:26:42.525Z,12.54
2019-04-05T11:29:09.151Z,12.64
2019-04-05T11:31:35.770Z,12.67
2019-04-05T11:34:02.366Z,12.65
2019-04-05T11:36:28.990Z,12.56
2019-04-05T11:38:55.606Z,12.54
2019-04-05T11:41:22.457Z,12.57
2019-04-05T11:43:49.084Z,12.56
2019-04-05T11:46:18.063Z,12.48
2019-04-05T11:48:44.210Z,12.55
2019-04-05T11:51:11.024Z,12.54
2019-04-05T11:53:37.721Z,12.52
2019-04-05T11:56:14.397Z,12.50
2019-04-05T11:58:32.841Z,12.52
2019-04-05T12:01:11.115Z,12.46
2019-04-05T12:03:38.601Z,12.49
2019-04-05T12:06:05.218Z,12.48
2019-04-05T12:08:31.939Z,12.45
2019-04-05T12:10:58.559Z,12.47
2019-04-05T12:13:25.174Z,12.53
2019-04-05T12:15:51.858Z,12.59
2019-04-05T12:18:19.687Z,12.64
2019-04-05T12:20:52.249Z,12.62
2019-04-05T12:23:15.078Z,12.48
2019-04-05T12:25:41.783Z,12.30
2019-04-05T12:28:10.576Z,11.98
2019-04-05T12:30:37.751Z,11.84
2019-04-05T12:33:13.988Z,11.73
2019-04-05T12:35:32.872Z,11.56
2019-04-05T12:37:59.482Z,11.44
2019-04-05T12:40:26.127Z,11.50
2019-04-05T12:42:53.196Z,11.60
2019-04-05T12:45:19.930Z,11.72
2019-04-05T12:47:46.556Z,11.98
2019-04-05T12:50:14.538Z,12.38
2019-04-05T12:52:41.810Z,12.76
2019-04-05T12:55:13.135Z,13.20
2019-04-05T12:57:39.742Z,13.56
2019-04-05T13:00:07.126Z,13.82
2019-04-05T13:02:34.222Z,13.83
2019-04-05T13:05:00.940Z,13.74
2019-04-05T13:07:27.581Z,13.59
2019-04-05T13:09:55.106Z,13.38
2019-04-05T13:12:21.994Z,13.26
2019-04-05T13:14:48.619Z,13.17
2019-04-05T13:17:15.319Z,13.08
2019-04-05T13:19:42.027Z,12.99
2019-04-05T13:22:08.634Z,13.17
2019-04-05T13:24:35.236Z,13.51
2019-04-05T13:27:02.175Z,13.93
2019-04-05T13:29:28.939Z,14.57
2019-04-05T13:31:55.604Z,14.84
2019-04-05T13:34:25.636Z,15.05
2019-04-05T13:36:50.730Z,15.70
2019-04-05T13:39:17.354Z,16.08
2019-04-05T13:41:44.067Z,16.17
2019-04-05T13:44:10.793Z,16.00
2019-04-05T13:46:39.071Z,15.58
2019-04-05T13:49:05.962Z,15.07
2019-04-05T13:51:32.660Z,14.71
2019-04-05T13:53:59.269Z,14.51
2019-04-05T13:56:25.876Z,14.33
2019-04-05T13:58:52.492Z,14.18
2019-04-05T14:01:20.735Z,13.95
2019-04-05T14:03:48.498Z,13.78
2019-04-05T14:06:16.144Z,13.67
2019-04-05T14:08:42.729Z,13.46
2019-04-05T14:11:10.458Z,13.28
2019-04-05T14:13:42.180Z,13.19
2019-04-05T14:16:06.353Z,13.25
2019-04-05T14:18:33.014Z,13.20
2019-04-05T14:20:59.626Z,13.04
2019-04-05T14:23:26.233Z,12.87
2019-04-05T14:25:52.863Z,12.84
2019-04-05T14:28:19.570Z,12.77
2019-04-05T14:30:46.216Z,12.75
2019-04-05T14:33:12.821Z,12.64
2019-04-05T14:35:39.427Z,12.61
2019-04-05T14:38:06.090Z,12.59
2019-04-05T14:40:33.098Z,12.68
2019-04-05T14:42:59.916Z,12.64
2019-04-05T14:45:26.520Z,12.81
2019-04-05T14:47:53.223Z,12.97
2019-04-05T14:50:19.821Z,13.17
2019-04-05T14:52:49.342Z,13.42
2019-04-05T14:55:14.768Z,13.72
2019-04-05T14:57:41.415Z,14.11
2019-04-05T15:00:08.341Z,14.71
2019-04-05T15:02:34.971Z,15.21
2019-04-05T15:05:01.601Z,15.46
2019-04-05T15:07:28.303Z,15.74
2019-04-05T15:09:55.783Z,15.64
2019-04-05T15:12:22.444Z,15.48
2019-04-05T15:14:49.136Z,15.29
2019-04-05T15:17:15.748Z,15.09
2019-04-05T15:19:42.360Z,15.06
2019-04-05T15:22:11.668Z,15.30
2019-04-05T15:24:37.511Z,15.50
2019-04-05T15:27:04.315Z,15.57
2019-04-05T15:29:30.984Z,15.69
2019-04-05T15:31:57.701Z,15.71
2019-04-05T15:34:28.147Z,15.78
2019-04-05T15:36:52.782Z,16.20
2019-04-05T15:39:19.396Z,16.55
2019-04-05T15:41:46.003Z,16.79
2019-04-05T15:44:12.710Z,16.81
2019-04-05T15:46:39.332Z,16.54
2019-04-05T15:49:05.948Z,15.78
2019-04-05T15:51:35.728Z,14.87
2019-04-05T15:54:02.363Z,14.45
2019-04-05T15:56:29.046Z,14.25
2019-04-05T15:58:55.684Z,14.30
2019-04-05T16:01:22.289Z,14.20
2019-04-05T16:03:49.036Z,14.11
2019-04-05T16:06:15.662Z,13.99
2019-04-05T16:08:42.451Z,13.84
2019-04-05T16:11:09.094Z,13.56
2019-04-05T16:13:36.555Z,13.26
2019-04-05T16:16:03.152Z,13.04
2019-04-05T16:18:29.780Z,12.86
2019-04-05T16:20:56.427Z,12.66
2019-04-05T16:23:23.114Z,12.53
2019-04-05T16:25:49.748Z,12.50
2019-04-05T16:28:16.344Z,12.64
2019-04-05T16:30:42.958Z,12.74
2019-04-05T16:33:09.548Z,12.92
2019-04-05T16:35:36.158Z,13.18
2019-04-05T16:38:02.958Z,13.53
2019-04-05T16:40:31.307Z,13.84
2019-04-05T16:43:02.785Z,14.11
2019-04-05T16:45:26.627Z,14.19
2019-04-05T16:47:53.231Z,14.04
2019-04-05T16:50:21.336Z,13.95
2019-04-05T16:52:48.151Z,13.78
2019-04-05T16:55:14.676Z,13.54
2019-04-05T16:57:41.347Z,13.34
2019-04-05T17:00:08.678Z,13.18
2019-04-05T17:02:35.293Z,12.98
2019-04-05T17:05:01.900Z,12.73
2019-04-05T17:07:28.506Z,12.52
2019-04-05T17:09:55.113Z,12.24
2019-04-05T17:12:21.857Z,12.02
2019-04-05T17:14:48.463Z,11.90
2019-04-05T17:17:15.116Z,11.81
2019-04-05T17:19:41.809Z,11.73
2019-04-05T17:22:08.491Z,11.63
2019-04-05T17:24:35.152Z,11.49
2019-04-05T17:27:01.757Z,11.33
2019-04-05T17:29:28.383Z,11.30
2019-04-05T17:31:55.014Z,11.24
2019-04-05T17:34:21.751Z,11.19
2019-04-05T17:36:48.532Z,11.15
2019-04-05T17:39:15.166Z,11.04
2019-04-05T17:41:41.868Z,10.96
2019-04-05T17:44:08.482Z,10.85
2019-04-05T17:46:35.196Z,10.69
2019-04-05T17:49:01.817Z,10.50
2019-04-05T17:51:28.521Z,10.30
2019-04-05T17:53:55.149Z,10.12
2019-04-05T17:56:21.868Z,9.95
2019-04-05T17:58:48.506Z,9.80
2019-04-05T18:01:15.346Z,9.62
2019-04-05T18:03:42.009Z,9.41
2019-04-05T18:06:08.678Z,9.21
2019-04-05T18:08:35.361Z,9.03
2019-04-05T18:11:02.074Z,8.87
2019-04-05T18:13:28.802Z,8.75
2019-04-05T18:15:55.525Z,8.64
2019-04-05T18:18:22.151Z,8.55
2019-04-05T18:20:48.873Z,8.47
2019-04-05T18:23:24.907Z,8.40
2019-04-05T18:25:44.210Z,8.32
2019-04-05T18:28:10.888Z,8.20
2019-04-05T18:30:37.520Z,8.11
2019-04-05T18:33:04.238Z,8.07
2019-04-05T18:35:30.969Z,8.03
2019-04-05T18:37:57.699Z,7.99
2019-04-05T18:40:24.401Z,7.94
2019-04-05T18:42:51.110Z,7.90
2019-04-05T18:45:17.878Z,7.84
2019-04-05T18:47:44.620Z,7.78
2019-04-05T18:50:11.323Z,7.73
2019-04-05T18:52:37.961Z,7.71
2019-04-05T18:55:05.562Z,7.71
2019-04-05T18:57:32.280Z,7.70
2019-04-05T18:59:59.004Z,7.68
2019-04-05T19:02:25.719Z,7.63
2019-04-05T19:04:52.341Z,7.61
2019-04-05T19:07:18.992Z,7.58
2019-04-05T19:09:45.721Z,7.57
2019-04-05T19:12:12.473Z,7.56
2019-04-05T19:14:39.168Z,7.57
2019-04-05T19:17:05.764Z,7.53
2019-04-05T19:19:32.430Z,7.52
2019-04-05T19:21:59.087Z,7.55
2019-04-05T19:24:25.717Z,7.62
2019-04-05T19:26:52.411Z,7.68
2019-04-05T19:29:19.037Z,7.67
2019-04-05T19:49:05.401Z,7.66
2019-04-05T19:51:32.009Z,7.65
2019-04-05T19:54:01.410Z,7.64
2019-04-05T19:56:27.259Z,7.64
2019-04-05T19:58:53.967Z,7.63
2019-04-05T20:01:23.158Z,7.60
2019-04-05T20:03:49.784Z,7.58
2019-04-05T20:06:20.673Z,7.57
2019-04-05T20:08:47.781Z,7.56
2019-04-05T20:11:14.504Z,7.55
2019-04-05T20:13:41.102Z,7.56
2019-04-05T20:16:07.749Z,7.59
2019-04-05T20:18:34.435Z,7.60
2019-04-05T20:21:01.068Z,7.59
2019-04-05T20:23:27.678Z,7.61
2019-04-05T20:25:54.328Z,7.63
2019-04-05T20:28:21.039Z,7.63
2019-04-05T20:30:47.744Z,7.67
2019-04-05T20:33:14.372Z,7.71
2019-04-05T20:35:41.001Z,7.76
2019-04-05T20:38:07.739Z,7.75
2019-04-05T20:40:34.450Z,7.72
2019-04-05T20:43:01.177Z,7.72
2019-04-05T20:45:27.789Z,7.75
2019-04-05T20:47:54.402Z,7.80
2019-04-05T20:50:21.009Z,7.83
2019-04-05T20:52:47.740Z,7.85
2019-04-05T20:55:15.356Z,7.87
2019-04-05T20:57:42.000Z,7.88
2019-04-05T21:00:09.826Z,7.87
2019-04-05T21:02:36.469Z,7.82
2019-04-05T21:05:03.393Z,7.76
2019-04-05T21:07:30.028Z,7.71
2019-04-05T21:09:56.665Z,7.69
2019-04-05T21:12:23.279Z,7.68
2019-04-05T21:14:49.990Z,7.67
2019-04-05T21:17:16.606Z,7.65
2019-04-05T21:22:32.807Z,7.59
2019-04-05T21:24:59.431Z,7.54
2019-04-05T21:27:26.111Z,7.48
2019-04-05T21:29:52.762Z,7.42
2019-04-05T21:32:19.457Z,7.36
2019-04-05T21:34:46.177Z,7.27
2019-04-05T21:37:12.804Z,7.23
2019-04-05T21:39:39.443Z,7.19
2019-04-05T21:42:06.138Z,7.13
2019-04-05T21:44:32.759Z,7.08
2019-04-05T21:46:59.471Z,7.00
2019-04-05T21:49:26.200Z,6.89
2019-04-05T21:51:52.900Z,6.84
2019-04-05T21:54:19.531Z,6.78
2019-04-05T21:56:46.520Z,6.67
2019-04-05T21:59:13.229Z,6.58
2019-04-05T22:01:40.057Z,6.52
2019-04-05T22:04:06.682Z,6.48
2019-04-05T22:06:33.288Z,6.46
2019-04-05T22:08:59.911Z,6.39
2019-04-05T22:11:27.779Z,6.34
2019-04-05T22:14:01.178Z,6.30
2019-04-05T22:16:27.804Z,6.24
2019-04-05T22:18:54.495Z,6.17
2019-04-05T22:21:21.112Z,6.12
2019-04-05T22:23:47.724Z,6.09
2019-04-05T22:26:14.432Z,6.06
2019-04-05T22:28:41.036Z,6.04
2019-04-05T22:31:07.742Z,6.01
2019-04-05T22:33:34.428Z,5.97
2019-04-05T22:36:01.073Z,5.95
2019-04-05T22:38:27.660Z,5.93
2019-04-05T22:40:54.278Z,5.88
2019-04-05T22:43:20.898Z,5.83
2019-04-05T22:45:47.506Z,5.75
2019-04-05T22:48:14.220Z,5.73
2019-04-05T22:50:40.860Z,5.70
2019-04-05T22:53:07.515Z,5.68
2019-04-05T22:55:34.129Z,5.67
2019-04-05T22:58:00.845Z,5.66
2019-04-05T23:00:27.465Z,5.67
2019-04-05T23:02:54.264Z,5.66
2019-04-05T23:05:21.022Z,5.61
2019-04-05T23:07:47.891Z,5.55
2019-04-05T23:10:14.519Z,5.52
2019-04-05T23:12:41.173Z,5.51
2019-04-05T23:15:07.917Z,5.48
2019-04-05T23:17:34.578Z,5.46
2019-04-05T23:20:01.312Z,5.43
2019-04-05T23:22:27.977Z,5.40
2019-04-05T23:24:54.609Z,5.40
2019-04-05T23:27:21.217Z,5.39
2019-04-05T23:29:47.839Z,5.38
2019-04-05T23:32:21.763Z,5.32
2019-04-05T23:34:48.459Z,5.28
2019-04-05T23:37:15.057Z,5.26
2019-04-05T23:39:41.682Z,5.27
2019-04-05T23:42:08.401Z,5.27
2019-04-05T23:44:35.105Z,5.20
2019-04-05T23:47:01.743Z,5.10
2019-04-05T23:49:28.363Z,5.03
2019-04-05T23:51:55.065Z,4.99
2019-04-05T23:54:21.691Z,4.99
2019-04-05T23:56:48.414Z,4.95
2019-04-05T23:59:15.212Z,4.88
